sensor_id;sensor_type;location;lat;lon;timestamp;temperature;humidity
79301;SHT31;68755;51.984;5.646;2023-03-21T10:55:59;13.5;74.2
79301;SHT31;68755;51.984;5.646;2023-03-21T10:58:39;13.6;74.1
79301;SHT31;68755;51.984;5.646;2023-03-21T11:01:22;13.7;73.1
79301;SHT31;68755;51.984;5.646;2023-03-21T11:03:55;13.7;72.5
79301;SHT31;68755;51.984;5.646;2023-03-21T11:06:29;13.8;72.0
79301;SHT31;68755;51.984;5.646;2023-03-21T11:09:04;13.8;71.7
79301;SHT31;68755;51.984;5.646;2023-03-21T11:11:38;13.9;71.2
79301;SHT31;68755;51.984;5.646;2023-03-21T11:14:25;13.9;70.7
79301;SHT31;68755;51.984;5.646;2023-03-21T11:16:56;13.9;70.7
79301;SHT31;68755;51.984;5.646;2023-03-21T11:19:32;13.9;70.9
79301;SHT31;68755;51.984;5.646;2023-03-21T11:22:06;13.9;70.7
79301;SHT31;68755;51.984;5.646;2023-03-21T11:24:37;13.9;70.4
79301;SHT31;68755;51.984;5.646;2023-03-21T11:27:12;13.9;70.3
79301;SHT31;68755;51.984;5.646;2023-03-21T11:29:47;14.0;71.0
79301;SHT31;68755;51.984;5.646;2023-03-21T11:32:24;14.0;71.3
79301;SHT31;68755;51.984;5.646;2023-03-21T11:34:58;14.0;71.4
79301;SHT31;68755;51.984;5.646;2023-03-21T11:37:32;14.0;70.9
79301;SHT31;68755;51.984;5.646;2023-03-21T11:40:20;14.0;70.3
79301;SHT31;68755;51.984;5.646;2023-03-21T11:42:53;14.1;70.9
79301;SHT31;68755;51.984;5.646;2023-03-21T11:45:25;14.1;70.4
79301;SHT31;68755;51.984;5.646;2023-03-21T11:47:58;14.2;70.2
79301;SHT31;68755;51.984;5.646;2023-03-21T11:50:31;14.2;69.4
79301;SHT31;68755;51.984;5.646;2023-03-21T11:53:22;14.3;70.0
79301;SHT31;68755;51.984;5.646;2023-03-21T11:56:07;14.4;69.1
79301;SHT31;68755;51.984;5.646;2023-03-21T11:58:51;14.4;68.4
79301;SHT31;68755;51.984;5.646;2023-03-21T12:01:33;14.5;68.3
79301;SHT31;68755;51.984;5.646;2023-03-21T12:04:24;14.5;68.6
79301;SHT31;68755;51.984;5.646;2023-03-21T12:07:05;14.5;68.5
79301;SHT31;68755;51.984;5.646;2023-03-21T12:09:40;14.5;67.9
79301;SHT31;68755;51.984;5.646;2023-03-21T12:12:28;14.6;67.8
79301;SHT31;68755;51.984;5.646;2023-03-21T12:15:07;14.6;67.9
79301;SHT31;68755;51.984;5.646;2023-03-21T12:17:49;14.7;67.0
79301;SHT31;68755;51.984;5.646;2023-03-21T12:20:48;14.7;67.2
79301;SHT31;68755;51.984;5.646;2023-03-21T12:23:37;14.8;67.6
79301;SHT31;68755;51.984;5.646;2023-03-21T12:26:20;14.8;67.3
79301;SHT31;68755;51.984;5.646;2023-03-21T12:29:11;14.9;66.7
79301;SHT31;68755;51.984;5.646;2023-03-21T12:31:53;14.9;66.5
79301;SHT31;68755;51.984;5.646;2023-03-21T12:35:01;14.9;66.6
79301;SHT31;68755;51.984;5.646;2023-03-21T12:37:43;15.0;66.7
79301;SHT31;68755;51.984;5.646;2023-03-21T12:40:29;15.0;65.9
79301;SHT31;68755;51.984;5.646;2023-03-21T12:43:48;15.0;65.5
79301;SHT31;68755;51.984;5.646;2023-03-21T12:46:26;15.0;66.0
79301;SHT31;68755;51.984;5.646;2023-03-21T12:49:20;15.1;65.8
79301;SHT31;68755;51.984;5.646;2023-03-21T12:52:02;15.3;64.4
79301;SHT31;68755;51.984;5.646;2023-03-21T12:54:36;15.4;64.3
79301;SHT31;68755;51.984;5.646;2023-03-21T12:57:13;15.5;63.2
79301;SHT31;68755;51.984;5.646;2023-03-21T12:59:49;15.5;63.1
79301;SHT31;68755;51.984;5.646;2023-03-21T13:02:29;15.5;63.8
79301;SHT31;68755;51.984;5.646;2023-03-21T13:05:06;15.5;63.7
79301;SHT31;68755;51.984;5.646;2023-03-21T13:07:48;15.5;64.2
79301;SHT31;68755;51.984;5.646;2023-03-21T13:10:20;15.5;63.6
79301;SHT31;68755;51.984;5.646;2023-03-21T13:13:06;15.5;62.9
79301;SHT31;68755;51.984;5.646;2023-03-21T13:15:50;15.4;63.0
79301;SHT31;68755;51.984;5.646;2023-03-21T13:18:30;15.4;63.2
79301;SHT31;68755;51.984;5.646;2023-03-21T13:21:04;15.4;62.8
79301;SHT31;68755;51.984;5.646;2023-03-21T13:23:38;15.4;62.7
79301;SHT31;68755;51.984;5.646;2023-03-21T13:26:10;15.4;63.1
79301;SHT31;68755;51.984;5.646;2023-03-21T13:28:40;15.4;63.1
79301;SHT31;68755;51.984;5.646;2023-03-21T13:31:20;15.4;64.5
79301;SHT31;68755;51.984;5.646;2023-03-21T13:33:53;15.4;64.5
79301;SHT31;68755;51.984;5.646;2023-03-21T13:36:25;15.4;64.1
79301;SHT31;68755;51.984;5.646;2023-03-21T13:39:02;15.5;64.3
79301;SHT31;68755;51.984;5.646;2023-03-21T13:41:38;15.5;63.5
79301;SHT31;68755;51.984;5.646;2023-03-21T13:44:21;15.5;63.8
79301;SHT31;68755;51.984;5.646;2023-03-21T13:46:58;15.5;62.9
79301;SHT31;68755;51.984;5.646;2023-03-21T13:49:34;15.6;62.2
79301;SHT31;68755;51.984;5.646;2023-03-21T13:52:26;15.6;62.0
79301;SHT31;68755;51.984;5.646;2023-03-21T13:54:56;15.6;62.4
79301;SHT31;68755;51.984;5.646;2023-03-21T13:57:38;15.6;61.6
79301;SHT31;68755;51.984;5.646;2023-03-21T14:00:17;15.6;61.2
79301;SHT31;68755;51.984;5.646;2023-03-21T14:02:54;15.7;60.5
79301;SHT31;68755;51.984;5.646;2023-03-21T14:05:26;15.7;60.2
79301;SHT31;68755;51.984;5.646;2023-03-21T14:08:00;15.7;59.6
79301;SHT31;68755;51.984;5.646;2023-03-21T14:10:34;15.7;59.4
79301;SHT31;68755;51.984;5.646;2023-03-21T14:13:10;15.8;59.2
79301;SHT31;68755;51.984;5.646;2023-03-21T14:15:47;15.8;58.9
79301;SHT31;68755;51.984;5.646;2023-03-21T14:18:19;15.8;58.1
79301;SHT31;68755;51.984;5.646;2023-03-21T14:20:54;15.8;58.4
79301;SHT31;68755;51.984;5.646;2023-03-21T14:23:24;15.8;58.4
79301;SHT31;68755;51.984;5.646;2023-03-21T14:25:58;15.8;57.5
79301;SHT31;68755;51.984;5.646;2023-03-21T14:28:30;15.9;57.5
79301;SHT31;68755;51.984;5.646;2023-03-21T14:31:03;15.9;58.3
79301;SHT31;68755;51.984;5.646;2023-03-21T14:33:37;15.9;58.5
79301;SHT31;68755;51.984;5.646;2023-03-21T14:36:12;15.9;58.7
79301;SHT31;68755;51.984;5.646;2023-03-21T14:38:51;15.9;57.5
79301;SHT31;68755;51.984;5.646;2023-03-21T14:41:23;16.0;58.0
79301;SHT31;68755;51.984;5.646;2023-03-21T14:44:54;16.0;57.3
79301;SHT31;68755;51.984;5.646;2023-03-21T14:47:28;16.1;57.4
79301;SHT31;68755;51.984;5.646;2023-03-21T14:49:59;16.1;56.6
79301;SHT31;68755;51.984;5.646;2023-03-21T14:52:32;16.2;57.1
79301;SHT31;68755;51.984;5.646;2023-03-21T14:55:12;16.2;56.5
79301;SHT31;68755;51.984;5.646;2023-03-21T14:57:44;16.2;56.2
79301;SHT31;68755;51.984;5.646;2023-03-21T15:00:21;16.2;56.8
79301;SHT31;68755;51.984;5.646;2023-03-21T15:02:53;16.3;57.3
79301;SHT31;68755;51.984;5.646;2023-03-21T15:05:26;16.3;57.6
79301;SHT31;68755;51.984;5.646;2023-03-21T15:08:11;16.3;56.6
79301;SHT31;68755;51.984;5.646;2023-03-21T15:10:55;16.3;57.2
79301;SHT31;68755;51.984;5.646;2023-03-21T15:13:29;16.3;57.0
79301;SHT31;68755;51.984;5.646;2023-03-21T15:16:01;16.2;56.7
79301;SHT31;68755;51.984;5.646;2023-03-21T15:18:33;16.2;56.6
79301;SHT31;68755;51.984;5.646;2023-03-21T15:21:09;16.2;56.7
79301;SHT31;68755;51.984;5.646;2023-03-21T15:23:44;16.2;57.1
79301;SHT31;68755;51.984;5.646;2023-03-21T15:26:17;16.1;57.3
79301;SHT31;68755;51.984;5.646;2023-03-21T15:28:50;16.1;57.4
79301;SHT31;68755;51.984;5.646;2023-03-21T15:31:28;16.1;57.7
79301;SHT31;68755;51.984;5.646;2023-03-21T15:33:59;16.1;57.6
79301;SHT31;68755;51.984;5.646;2023-03-21T15:36:33;16.1;57.7
79301;SHT31;68755;51.984;5.646;2023-03-21T15:39:07;16.1;57.8
79301;SHT31;68755;51.984;5.646;2023-03-21T15:41:41;16.1;57.6
79301;SHT31;68755;51.984;5.646;2023-03-21T15:44:20;16.1;58.1
79301;SHT31;68755;51.984;5.646;2023-03-21T15:46:53;16.1;58.2
79301;SHT31;68755;51.984;5.646;2023-03-21T15:49:26;16.0;58.7
79301;SHT31;68755;51.984;5.646;2023-03-21T15:52:02;16.0;59.0
79301;SHT31;68755;51.984;5.646;2023-03-21T15:54:35;16.0;58.9
79301;SHT31;68755;51.984;5.646;2023-03-21T15:57:20;16.1;59.0
79301;SHT31;68755;51.984;5.646;2023-03-21T15:59:54;16.1;58.8
79301;SHT31;68755;51.984;5.646;2023-03-21T16:02:29;16.2;58.5
79301;SHT31;68755;51.984;5.646;2023-03-21T16:05:01;16.2;58.5
79301;SHT31;68755;51.984;5.646;2023-03-21T16:07:36;16.2;58.7
79301;SHT31;68755;51.984;5.646;2023-03-21T16:10:26;16.2;58.2
79301;SHT31;68755;51.984;5.646;2023-03-21T16:12:57;16.2;58.7
79301;SHT31;68755;51.984;5.646;2023-03-21T16:15:27;16.2;58.8
79301;SHT31;68755;51.984;5.646;2023-03-21T16:17:59;16.2;58.8
79301;SHT31;68755;51.984;5.646;2023-03-21T16:20:32;16.1;59.3
79301;SHT31;68755;51.984;5.646;2023-03-21T16:23:05;16.1;58.8
79301;SHT31;68755;51.984;5.646;2023-03-21T16:25:35;16.1;59.0
79301;SHT31;68755;51.984;5.646;2023-03-21T16:28:13;16.0;59.3
79301;SHT31;68755;51.984;5.646;2023-03-21T16:30:44;16.0;59.4
79301;SHT31;68755;51.984;5.646;2023-03-21T16:33:14;15.9;59.7
79301;SHT31;68755;51.984;5.646;2023-03-21T16:35:43;15.9;60.2
79301;SHT31;68755;51.984;5.646;2023-03-21T16:38:13;15.9;60.0
79301;SHT31;68755;51.984;5.646;2023-03-21T16:40:43;15.8;59.9
79301;SHT31;68755;51.984;5.646;2023-03-21T16:43:13;15.8;60.1
79301;SHT31;68755;51.984;5.646;2023-03-21T16:45:43;15.8;60.5
79301;SHT31;68755;51.984;5.646;2023-03-21T16:48:14;15.7;62.6
79301;SHT31;68755;51.984;5.646;2023-03-21T16:50:47;15.7;63.0
79301;SHT31;68755;51.984;5.646;2023-03-21T16:53:17;15.7;62.8
79301;SHT31;68755;51.984;5.646;2023-03-21T16:55:47;15.7;62.9
79301;SHT31;68755;51.984;5.646;2023-03-21T16:58:18;15.7;63.2
79301;SHT31;68755;51.984;5.646;2023-03-21T17:00:48;15.7;63.2
79301;SHT31;68755;51.984;5.646;2023-03-21T17:03:18;15.6;63.2
79301;SHT31;68755;51.984;5.646;2023-03-21T17:05:48;15.6;63.2
79301;SHT31;68755;51.984;5.646;2023-03-21T17:08:19;15.6;63.5
79301;SHT31;68755;51.984;5.646;2023-03-21T17:10:50;15.6;63.3
79301;SHT31;68755;51.984;5.646;2023-03-21T17:13:20;15.6;63.4
79301;SHT31;68755;51.984;5.646;2023-03-21T17:18:53;15.7;63.5
79301;SHT31;68755;51.984;5.646;2023-03-21T17:21:27;15.7;63.1
79301;SHT31;68755;51.984;5.646;2023-03-21T17:23:57;15.7;63.2
79301;SHT31;68755;51.984;5.646;2023-03-21T17:26:28;15.7;63.3
79301;SHT31;68755;51.984;5.646;2023-03-21T17:28:58;15.7;63.3
79301;SHT31;68755;51.984;5.646;2023-03-21T17:31:32;15.6;63.5
79301;SHT31;68755;51.984;5.646;2023-03-21T17:34:03;15.6;63.7
79301;SHT31;68755;51.984;5.646;2023-03-21T17:36:35;15.5;63.8
79301;SHT31;68755;51.984;5.646;2023-03-21T17:39:08;15.4;63.9
79301;SHT31;68755;51.984;5.646;2023-03-21T17:41:42;15.4;64.1
79301;SHT31;68755;51.984;5.646;2023-03-21T17:44:12;15.3;64.0
79301;SHT31;68755;51.984;5.646;2023-03-21T17:46:42;15.2;64.1
79301;SHT31;68755;51.984;5.646;2023-03-21T17:49:14;15.1;64.2
79301;SHT31;68755;51.984;5.646;2023-03-21T17:51:44;15.1;64.3
79301;SHT31;68755;51.984;5.646;2023-03-21T17:54:14;15.0;64.6
79301;SHT31;68755;51.984;5.646;2023-03-21T17:56:44;14.9;64.8
79301;SHT31;68755;51.984;5.646;2023-03-21T17:59:14;14.8;65.1
79301;SHT31;68755;51.984;5.646;2023-03-21T18:01:46;14.7;65.3
79301;SHT31;68755;51.984;5.646;2023-03-21T18:04:18;14.6;65.5
79301;SHT31;68755;51.984;5.646;2023-03-21T18:06:50;14.5;65.8
79301;SHT31;68755;51.984;5.646;2023-03-21T18:09:25;14.5;66.1
79301;SHT31;68755;51.984;5.646;2023-03-21T18:11:55;14.4;66.4
79301;SHT31;68755;51.984;5.646;2023-03-21T18:14:27;14.3;66.7
79301;SHT31;68755;51.984;5.646;2023-03-21T18:16:57;14.3;66.9
79301;SHT31;68755;51.984;5.646;2023-03-21T18:19:27;14.2;67.2
79301;SHT31;68755;51.984;5.646;2023-03-21T18:21:58;14.2;67.3
79301;SHT31;68755;51.984;5.646;2023-03-21T18:24:28;14.2;67.6
79301;SHT31;68755;51.984;5.646;2023-03-21T18:26:58;14.1;68.0
79301;SHT31;68755;51.984;5.646;2023-03-21T18:29:29;14.1;68.3
79301;SHT31;68755;51.984;5.646;2023-03-21T18:31:59;14.1;68.3
79301;SHT31;68755;51.984;5.646;2023-03-21T18:34:30;14.1;68.6
79301;SHT31;68755;51.984;5.646;2023-03-21T18:37:00;14.1;68.7
79301;SHT31;68755;51.984;5.646;2023-03-21T18:39:30;14.1;68.7
79301;SHT31;68755;51.984;5.646;2023-03-21T18:42:01;14.2;68.7
79301;SHT31;68755;51.984;5.646;2023-03-21T18:44:31;14.2;68.8
79301;SHT31;68755;51.984;5.646;2023-03-21T18:47:04;14.2;68.8
79301;SHT31;68755;51.984;5.646;2023-03-21T18:49:34;14.2;68.9
79301;SHT31;68755;51.984;5.646;2023-03-21T18:52:05;14.2;68.8
79301;SHT31;68755;51.984;5.646;2023-03-21T18:54:36;14.2;68.8
79301;SHT31;68755;51.984;5.646;2023-03-21T18:57:07;14.2;68.7
79301;SHT31;68755;51.984;5.646;2023-03-21T18:59:38;14.3;68.7
79301;SHT31;68755;51.984;5.646;2023-03-21T19:02:12;14.2;68.5
79301;SHT31;68755;51.984;5.646;2023-03-21T19:04:43;14.2;68.5
79301;SHT31;68755;51.984;5.646;2023-03-21T19:07:13;14.2;68.6
79301;SHT31;68755;51.984;5.646;2023-03-21T19:09:43;14.2;68.6
79301;SHT31;68755;51.984;5.646;2023-03-21T19:12:16;14.1;68.9
79301;SHT31;68755;51.984;5.646;2023-03-21T19:14:46;14.1;69.1
79301;SHT31;68755;51.984;5.646;2023-03-21T19:17:16;14.1;69.2
79301;SHT31;68755;51.984;5.646;2023-03-21T19:19:46;14.1;69.4
79301;SHT31;68755;51.984;5.646;2023-03-21T19:22:18;14.1;69.5
79301;SHT31;68755;51.984;5.646;2023-03-21T19:24:48;14.1;69.6
79301;SHT31;68755;51.984;5.646;2023-03-21T19:27:19;14.1;69.8
79301;SHT31;68755;51.984;5.646;2023-03-21T19:29:49;14.1;69.8
79301;SHT31;68755;51.984;5.646;2023-03-21T19:32:21;14.2;69.8
79301;SHT31;68755;51.984;5.646;2023-03-21T19:34:51;14.2;69.9
79301;SHT31;68755;51.984;5.646;2023-03-21T19:37:21;14.2;69.8
79301;SHT31;68755;51.984;5.646;2023-03-21T19:39:50;14.2;69.8
79301;SHT31;68755;51.984;5.646;2023-03-21T19:42:20;14.2;69.5
79301;SHT31;68755;51.984;5.646;2023-03-21T19:44:51;14.2;69.6
79301;SHT31;68755;51.984;5.646;2023-03-21T19:47:21;14.2;69.2
79301;SHT31;68755;51.984;5.646;2023-03-21T19:49:52;14.2;69.1
79301;SHT31;68755;51.984;5.646;2023-03-21T19:52:22;14.2;68.8
79301;SHT31;68755;51.984;5.646;2023-03-21T19:54:52;14.2;68.5
79301;SHT31;68755;51.984;5.646;2023-03-21T19:57:22;14.2;68.3
79301;SHT31;68755;51.984;5.646;2023-03-21T19:59:52;14.1;68.4
79301;SHT31;68755;51.984;5.646;2023-03-21T20:02:24;14.1;68.5
79301;SHT31;68755;51.984;5.646;2023-03-21T20:04:54;14.0;68.6
79301;SHT31;68755;51.984;5.646;2023-03-21T20:07:24;13.9;68.9
79301;SHT31;68755;51.984;5.646;2023-03-21T20:09:54;13.9;69.2
79301;SHT31;68755;51.984;5.646;2023-03-21T20:12:25;13.9;69.4
79301;SHT31;68755;51.984;5.646;2023-03-21T20:14:56;13.9;69.6
79301;SHT31;68755;51.984;5.646;2023-03-21T20:17:26;13.9;69.6
79301;SHT31;68755;51.984;5.646;2023-03-21T20:19:56;13.9;69.6
79301;SHT31;68755;51.984;5.646;2023-03-21T20:22:27;13.9;69.7
79301;SHT31;68755;51.984;5.646;2023-03-21T20:24:58;13.9;69.7
79301;SHT31;68755;51.984;5.646;2023-03-21T20:27:34;13.9;69.6
79301;SHT31;68755;51.984;5.646;2023-03-21T20:30:08;13.9;69.6
79301;SHT31;68755;51.984;5.646;2023-03-21T20:32:40;13.9;69.7
79301;SHT31;68755;51.984;5.646;2023-03-21T20:35:12;14.0;69.7
79301;SHT31;68755;51.984;5.646;2023-03-21T20:37:44;14.0;69.5
79301;SHT31;68755;51.984;5.646;2023-03-21T20:40:19;14.0;69.3
79301;SHT31;68755;51.984;5.646;2023-03-21T20:42:49;14.0;69.3
79301;SHT31;68755;51.984;5.646;2023-03-21T20:45:22;14.0;69.2
79301;SHT31;68755;51.984;5.646;2023-03-21T20:47:52;14.0;69.1
79301;SHT31;68755;51.984;5.646;2023-03-21T20:50:24;14.0;69.2
79301;SHT31;68755;51.984;5.646;2023-03-21T20:53:00;14.0;69.1
79301;SHT31;68755;51.984;5.646;2023-03-21T20:55:30;14.0;69.1
79301;SHT31;68755;51.984;5.646;2023-03-21T20:58:00;13.9;69.3
79301;SHT31;68755;51.984;5.646;2023-03-21T21:00:31;13.9;69.5
79301;SHT31;68755;51.984;5.646;2023-03-21T21:03:05;13.9;69.4
79301;SHT31;68755;51.984;5.646;2023-03-21T21:05:35;13.9;69.2
79301;SHT31;68755;51.984;5.646;2023-03-21T21:08:04;13.9;69.2
79301;SHT31;68755;51.984;5.646;2023-03-21T21:10:36;13.9;69.0
79301;SHT31;68755;51.984;5.646;2023-03-21T21:13:06;13.9;69.0
79301;SHT31;68755;51.984;5.646;2023-03-21T21:15:36;13.8;69.1
79301;SHT31;68755;51.984;5.646;2023-03-21T21:18:08;13.8;69.2
79301;SHT31;68755;51.984;5.646;2023-03-21T21:20:39;13.7;69.3
79301;SHT31;68755;51.984;5.646;2023-03-21T21:23:08;13.6;69.6
79301;SHT31;68755;51.984;5.646;2023-03-21T21:25:40;13.6;69.8
79301;SHT31;68755;51.984;5.646;2023-03-21T21:28:10;13.5;70.1
79301;SHT31;68755;51.984;5.646;2023-03-21T21:30:40;13.4;70.3
79301;SHT31;68755;51.984;5.646;2023-03-21T21:33:10;13.4;70.6
79301;SHT31;68755;51.984;5.646;2023-03-21T21:35:41;13.3;71.0
79301;SHT31;68755;51.984;5.646;2023-03-21T21:38:15;13.2;71.2
79301;SHT31;68755;51.984;5.646;2023-03-21T21:40:47;13.2;71.7
79301;SHT31;68755;51.984;5.646;2023-03-21T21:43:20;13.2;72.1
79301;SHT31;68755;51.984;5.646;2023-03-21T21:45:51;13.3;71.9
79301;SHT31;68755;51.984;5.646;2023-03-21T21:48:21;13.3;71.3
79301;SHT31;68755;51.984;5.646;2023-03-21T21:50:52;13.3;71.1
79301;SHT31;68755;51.984;5.646;2023-03-21T21:53:22;13.3;70.9
79301;SHT31;68755;51.984;5.646;2023-03-21T21:55:54;13.3;70.9
79301;SHT31;68755;51.984;5.646;2023-03-21T21:58:24;13.2;71.1
79301;SHT31;68755;51.984;5.646;2023-03-21T22:00:57;13.1;71.2
79301;SHT31;68755;51.984;5.646;2023-03-21T22:03:28;13.1;71.6
79301;SHT31;68755;51.984;5.646;2023-03-21T22:06:03;13.0;71.7
79301;SHT31;68755;51.984;5.646;2023-03-21T22:08:33;13.0;71.8
79301;SHT31;68755;51.984;5.646;2023-03-21T22:11:04;12.9;72.0
79301;SHT31;68755;51.984;5.646;2023-03-21T22:13:34;12.9;72.4
79301;SHT31;68755;51.984;5.646;2023-03-21T22:16:06;12.8;72.5
79301;SHT31;68755;51.984;5.646;2023-03-21T22:18:36;12.8;72.6
79301;SHT31;68755;51.984;5.646;2023-03-21T22:21:07;12.8;72.6
79301;SHT31;68755;51.984;5.646;2023-03-21T22:23:37;12.8;72.5
79301;SHT31;68755;51.984;5.646;2023-03-21T22:26:08;12.8;72.2
79301;SHT31;68755;51.984;5.646;2023-03-21T22:28:38;12.8;71.9
79301;SHT31;68755;51.984;5.646;2023-03-21T22:31:10;12.8;71.5
79301;SHT31;68755;51.984;5.646;2023-03-21T22:33:42;12.7;71.5
79301;SHT31;68755;51.984;5.646;2023-03-21T22:36:13;12.7;71.4
79301;SHT31;68755;51.984;5.646;2023-03-21T22:38:42;12.6;71.3
79301;SHT31;68755;51.984;5.646;2023-03-21T22:41:14;12.6;71.5
79301;SHT31;68755;51.984;5.646;2023-03-21T22:43:44;12.6;71.6
79301;SHT31;68755;51.984;5.646;2023-03-21T22:46:13;12.5;71.4
79301;SHT31;68755;51.984;5.646;2023-03-21T22:48:43;12.5;71.3
79301;SHT31;68755;51.984;5.646;2023-03-21T22:51:13;12.4;71.2
79301;SHT31;68755;51.984;5.646;2023-03-21T22:53:43;12.4;71.1
79301;SHT31;68755;51.984;5.646;2023-03-21T22:56:12;12.4;71.0
79301;SHT31;68755;51.984;5.646;2023-03-21T22:58:42;12.3;70.9
79301;SHT31;68755;51.984;5.646;2023-03-21T23:01:12;12.3;70.9
79301;SHT31;68755;51.984;5.646;2023-03-21T23:03:42;12.3;70.9
79301;SHT31;68755;51.984;5.646;2023-03-21T23:06:12;12.3;70.9
79301;SHT31;68755;51.984;5.646;2023-03-21T23:08:42;12.2;70.9
79301;SHT31;68755;51.984;5.646;2023-03-21T23:11:12;12.2;71.0
79301;SHT31;68755;51.984;5.646;2023-03-21T23:13:42;12.2;71.0
79301;SHT31;68755;51.984;5.646;2023-03-21T23:16:13;12.1;71.2
79301;SHT31;68755;51.984;5.646;2023-03-21T23:18:44;12.1;71.3
79301;SHT31;68755;51.984;5.646;2023-03-21T23:21:14;12.1;71.5
79301;SHT31;68755;51.984;5.646;2023-03-21T23:23:44;12.1;71.5
79301;SHT31;68755;51.984;5.646;2023-03-21T23:26:17;12.0;71.6
79301;SHT31;68755;51.984;5.646;2023-03-21T23:28:47;12.0;71.6
79301;SHT31;68755;51.984;5.646;2023-03-21T23:31:20;12.0;71.9
79301;SHT31;68755;51.984;5.646;2023-03-21T23:33:50;12.0;71.8
79301;SHT31;68755;51.984;5.646;2023-03-21T23:36:21;12.0;71.8
79301;SHT31;68755;51.984;5.646;2023-03-21T23:38:51;12.0;71.8
79301;SHT31;68755;51.984;5.646;2023-03-21T23:41:23;12.0;71.6
79301;SHT31;68755;51.984;5.646;2023-03-21T23:43:55;11.9;71.5
79301;SHT31;68755;51.984;5.646;2023-03-21T23:46:27;11.9;71.5
79301;SHT31;68755;51.984;5.646;2023-03-21T23:48:58;11.9;71.5
79301;SHT31;68755;51.984;5.646;2023-03-21T23:51:27;11.9;71.5
79301;SHT31;68755;51.984;5.646;2023-03-21T23:53:57;11.9;71.4
79301;SHT31;68755;51.984;5.646;2023-03-21T23:56:27;11.9;71.4
79301;SHT31;68755;51.984;5.646;2023-03-21T23:58:59;11.8;71.3
